createdAt,value
2022-11-23T00:00:45.558Z,20.63
2022-11-23T00:04:45.705Z,19.57
2022-11-23T00:08:48.676Z,19.80
2022-11-23T00:12:49.231Z,19.73
2022-11-23T00:16:49.416Z,20.70
2022-11-23T00:20:49.463Z,20.17
2022-11-23T00:24:52.366Z,19.90
2022-11-23T00:28:53.278Z,19.10
2022-11-23T00:32:53.398Z,20.07
2022-11-23T00:36:54.549Z,19.47
2022-11-23T00:41:02.669Z,19.00
2022-11-23T00:45:02.959Z,19.67
2022-11-23T00:49:03.340Z,19.57
2022-11-23T00:53:03.720Z,19.30
2022-11-23T00:57:06.786Z,18.67
2022-11-23T01:01:11.214Z,18.80
2022-11-23T01:05:12.258Z,18.50
2022-11-23T01:09:17.923Z,19.17
2022-11-23T01:13:20.886Z,18.83
2022-11-23T01:17:21.245Z,18.87
2022-11-23T01:21:21.513Z,19.03
2022-11-23T01:25:21.963Z,19.27
2022-11-23T01:29:26.028Z,18.13
2022-11-23T01:33:26.148Z,17.97
2022-11-23T01:37:26.540Z,17.63
2022-11-23T01:41:29.950Z,17.40
2022-11-23T01:45:59.555Z,17.07
2022-11-23T01:49:59.903Z,16.70
2022-11-23T01:54:05.314Z,16.23
2022-11-23T01:58:07.110Z,17.90
2022-11-23T02:02:10.336Z,17.30
2022-11-23T02:06:17.940Z,17.23
2022-11-23T02:10:19.199Z,17.33
2022-11-23T02:14:23.421Z,15.63
2022-11-23T02:18:33.920Z,16.00
2022-11-23T02:22:46.585Z,16.40
2022-11-23T02:26:49.587Z,16.30
2022-11-23T02:30:53.880Z,16.77
2022-11-23T02:34:56.723Z,15.37
2022-11-23T02:38:58.683Z,15.40
2022-11-23T02:43:02.018Z,15.60
2022-11-23T02:47:02.416Z,16.50
2022-11-23T02:51:02.744Z,15.77
2022-11-23T02:55:04.876Z,16.30
2022-11-23T02:59:07.686Z,16.57
2022-11-23T03:03:08.547Z,16.00
2022-11-23T03:07:08.969Z,15.00
2022-11-23T03:11:09.560Z,14.63
2022-11-23T03:15:13.755Z,15.30
2022-11-23T03:19:14.885Z,14.93
2022-11-23T03:23:15.323Z,15.37
2022-11-23T03:27:16.950Z,15.10
2022-11-23T03:31:20.612Z,13.60
2022-11-23T03:35:21.747Z,14.97
2022-11-23T03:39:48.008Z,14.97
2022-11-23T03:44:07.023Z,14.23
2022-11-23T03:48:10.463Z,14.27
2022-11-23T03:52:10.702Z,14.57
2022-11-23T03:56:11.602Z,13.80
2022-11-23T04:00:17.574Z,14.03
2022-11-23T04:04:21.821Z,14.37
2022-11-23T04:09:02.429Z,14.37
2022-11-23T04:13:40.511Z,13.33
2022-11-23T04:17:42.223Z,12.93
2022-11-23T04:21:44.982Z,12.27
2022-11-23T04:25:49.179Z,12.53
2022-11-23T04:29:49.999Z,12.90
2022-11-23T04:33:51.219Z,13.47
2022-11-23T04:37:55.908Z,13.90
2022-11-23T04:41:59.791Z,13.40
2022-11-23T04:46:00.428Z,13.03
2022-11-23T04:50:03.803Z,13.13
2022-11-23T04:54:07.503Z,12.70
2022-11-23T04:58:15.600Z,13.00
2022-11-23T05:02:16.185Z,12.70
2022-11-23T05:06:26.895Z,12.40
2022-11-23T05:10:30.742Z,12.90
2022-11-23T05:14:32.468Z,13.37
2022-11-23T05:18:32.734Z,13.23
2022-11-23T05:22:33.050Z,13.97
2022-11-23T05:26:35.778Z,13.60
2022-11-23T05:30:36.539Z,14.03
2022-11-23T05:34:36.905Z,14.63
2022-11-23T05:38:38.300Z,14.03
2022-11-23T05:42:46.986Z,14.43
2022-11-23T05:46:53.070Z,14.87
2022-11-23T05:50:54.893Z,16.90
2022-11-23T05:55:07.074Z,17.20
2022-11-23T05:59:10.316Z,18.23
2022-11-23T06:03:12.679Z,16.40
2022-11-23T06:07:13.998Z,16.50
2022-11-23T06:11:33.519Z,16.23
2022-11-23T06:15:42.314Z,17.53
2022-11-23T06:19:42.659Z,17.17
2022-11-23T06:23:44.693Z,17.70
2022-11-23T06:27:45.007Z,17.80
2022-11-23T06:31:56.030Z,17.10
2022-11-23T06:35:57.915Z,17.37
2022-11-23T06:40:02.056Z,18.77
2022-11-23T06:44:02.338Z,18.77
2022-11-23T06:48:14.678Z,18.33
2022-11-23T06:52:19.034Z,19.27
2022-11-23T06:56:20.076Z,20.90
2022-11-23T07:05:32.778Z,20.67
2022-11-23T07:09:33.513Z,20.83
2022-11-23T07:13:59.926Z,19.93
2022-11-23T07:18:02.679Z,20.03
2022-11-23T07:22:05.887Z,21.47
2022-11-23T07:26:06.484Z,18.80
2022-11-23T07:30:08.305Z,18.50
2022-11-23T07:34:09.416Z,17.43
2022-11-23T07:38:12.447Z,17.27
2022-11-23T07:42:31.661Z,17.10
2022-11-23T07:46:32.865Z,18.60
2022-11-23T07:50:33.667Z,17.67
2022-11-23T07:54:36.441Z,18.93
2022-11-23T07:58:36.565Z,18.60
2022-11-23T08:02:36.650Z,18.80
2022-11-23T08:06:36.841Z,18.33
2022-11-23T08:10:47.170Z,18.83
2022-11-23T08:14:50.183Z,18.13
2022-11-23T08:18:51.024Z,18.83
2022-11-23T08:22:51.247Z,16.93
2022-11-23T08:26:53.912Z,17.30
2022-11-23T08:30:54.033Z,17.30
2022-11-23T08:34:54.230Z,15.50
2022-11-23T08:38:54.428Z,16.83
2022-11-23T08:42:58.002Z,16.20
2022-11-23T08:46:58.272Z,16.13
2022-11-23T08:51:01.822Z,19.30
2022-11-23T08:55:01.928Z,16.87
2022-11-23T08:59:04.658Z,15.77
2022-11-23T09:03:04.889Z,15.10
2022-11-23T09:07:06.596Z,15.03
2022-11-23T09:11:10.867Z,15.77
2022-11-23T09:15:14.051Z,14.17
2022-11-23T09:19:17.407Z,17.57
2022-11-23T09:23:17.631Z,14.13
2022-11-23T09:27:18.274Z,13.43
2022-11-23T09:31:21.218Z,12.77
2022-11-23T09:35:21.476Z,13.10
2022-11-23T09:39:21.749Z,13.40
2022-11-23T09:43:45.332Z,13.70
2022-11-23T09:48:08.423Z,13.30
2022-11-23T09:52:19.576Z,13.70
2022-11-23T09:56:24.055Z,14.13
2022-11-23T10:00:26.585Z,13.13
2022-11-23T10:04:38.540Z,13.17
2022-11-23T10:08:49.379Z,12.90
2022-11-23T10:13:02.824Z,14.77
2022-11-23T10:17:16.730Z,14.60
2022-11-23T10:21:32.092Z,13.37
2022-11-23T10:25:41.711Z,11.70
2022-11-23T10:29:42.892Z,12.90
2022-11-23T10:33:58.333Z,15.23
2022-11-23T10:38:18.808Z,12.63
2022-11-23T10:42:27.413Z,13.83
2022-11-23T10:46:34.768Z,18.27
2022-11-23T10:50:37.693Z,12.70
2022-11-23T10:54:54.417Z,12.20
2022-11-23T10:58:54.847Z,13.67
2022-11-23T11:02:57.577Z,17.60
2022-11-23T11:07:22.439Z,19.27
2022-11-23T11:11:31.021Z,11.50
2022-11-23T11:15:31.358Z,10.20
2022-11-23T11:19:35.106Z,10.10
2022-11-23T11:23:37.582Z,11.00
2022-11-23T11:27:40.459Z,12.03
2022-11-23T11:31:55.148Z,9.67
2022-11-23T11:35:58.215Z,11.50
2022-11-23T11:40:09.845Z,11.73
2022-11-23T11:44:23.126Z,10.53
2022-11-23T11:48:31.140Z,11.47
2022-11-23T11:52:38.902Z,12.03
2022-11-23T11:56:44.651Z,10.90
2022-11-23T12:00:51.969Z,10.47
2022-11-23T12:05:14.391Z,10.70
2022-11-23T12:09:21.761Z,9.43
2022-11-23T12:13:25.519Z,10.10
2022-11-23T12:18:11.553Z,9.70
2022-11-23T12:22:44.464Z,9.13
2022-11-23T12:26:56.288Z,9.87
2022-11-23T12:31:11.784Z,10.30
2022-11-23T12:35:49.049Z,9.83
2022-11-23T12:40:16.985Z,10.57
2022-11-23T12:44:57.451Z,12.47
2022-11-23T12:49:21.713Z,11.70
2022-11-23T12:53:44.127Z,9.77
2022-11-23T12:57:55.167Z,7.67
2022-11-23T13:02:02.871Z,8.37
2022-11-23T13:07:27.623Z,11.07
2022-11-23T13:11:50.882Z,13.27
2022-11-23T13:16:19.929Z,9.90
2022-11-23T13:20:44.868Z,9.80
2022-11-23T13:25:06.244Z,9.60
2022-11-23T13:29:58.794Z,9.23
2022-11-23T13:34:01.490Z,9.80
2022-11-23T13:38:31.417Z,9.10
2022-11-23T13:42:37.307Z,9.20
2022-11-23T13:46:40.702Z,10.67
2022-11-23T13:50:57.762Z,10.40
2022-11-23T13:55:22.599Z,10.53
2022-11-23T13:59:34.865Z,11.17
2022-11-23T14:03:58.715Z,11.43
2022-11-23T14:08:02.434Z,12.37
2022-11-23T14:12:11.884Z,12.10
2022-11-23T14:16:21.269Z,13.37
2022-11-23T14:20:44.000Z,16.90
2022-11-23T14:25:07.029Z,13.47
2022-11-23T14:29:35.145Z,12.93
2022-11-23T14:33:47.243Z,15.90
2022-11-23T14:38:09.195Z,15.90
2022-11-23T14:42:17.317Z,12.93
2022-11-23T14:46:21.218Z,12.33
2022-11-23T14:50:27.685Z,11.87
2022-11-23T14:54:32.319Z,12.30
2022-11-23T14:58:36.050Z,12.90
2022-11-23T15:02:40.607Z,11.93
2022-11-23T15:06:50.191Z,12.63
2022-11-23T15:11:03.427Z,16.43
2022-11-23T15:15:03.570Z,13.80
2022-11-23T15:19:19.216Z,13.83
2022-11-23T15:23:25.085Z,13.90
2022-11-23T15:27:31.053Z,13.13
2022-11-23T15:31:35.843Z,13.57
2022-11-23T15:35:39.640Z,14.93
2022-11-23T15:39:41.007Z,14.87
2022-11-23T15:43:56.143Z,12.97
2022-11-23T15:47:56.330Z,18.37
2022-11-23T15:52:04.075Z,24.47
2022-11-23T15:56:09.019Z,16.40
2022-11-23T16:00:25.812Z,15.50
2022-11-23T16:04:31.677Z,15.70
2022-11-23T16:08:40.800Z,16.67
2022-11-23T16:12:52.486Z,15.53
2022-11-23T16:17:17.494Z,18.13
2022-11-23T16:21:21.681Z,16.80
2022-11-23T16:25:31.755Z,18.07
2022-11-23T16:29:38.518Z,18.03
2022-11-23T16:33:41.194Z,21.43
2022-11-23T16:37:41.296Z,21.40
2022-11-23T16:41:41.773Z,19.97
2022-11-23T16:45:46.511Z,21.13
2022-11-23T16:49:49.364Z,21.37
2022-11-23T16:58:17.052Z,21.73
2022-11-23T17:02:19.081Z,21.77
2022-11-23T17:06:25.148Z,21.27
2022-11-23T17:10:25.484Z,20.40
2022-11-23T17:14:29.470Z,20.00
2022-11-23T17:18:30.013Z,24.87
2022-11-23T17:22:32.724Z,20.47
2022-11-23T17:26:38.112Z,20.60
2022-11-23T17:30:38.300Z,21.50
2022-11-23T17:34:38.554Z,22.30
2022-11-23T17:38:44.598Z,21.77
2022-11-23T17:42:44.685Z,19.27
2022-11-23T17:46:45.541Z,24.00
2022-11-23T17:50:47.584Z,20.70
2022-11-23T17:54:50.278Z,18.93
2022-11-23T17:58:50.901Z,23.67
2022-11-23T18:02:52.873Z,27.70
2022-11-23T18:06:53.028Z,19.27
2022-11-23T18:10:59.058Z,25.80
2022-11-23T18:14:59.476Z,23.00
2022-11-23T18:18:59.700Z,20.27
2022-11-23T18:22:59.845Z,19.23
2022-11-23T18:27:02.501Z,26.47
2022-11-23T18:31:02.640Z,19.97
2022-11-23T18:35:02.768Z,23.23
2022-11-23T18:39:02.868Z,23.00
2022-11-23T18:43:05.536Z,19.57
2022-11-23T18:47:05.996Z,18.00
2022-11-23T18:51:11.743Z,19.23
2022-11-23T18:55:12.333Z,17.87
2022-11-23T18:59:28.989Z,18.43
2022-11-23T19:03:37.752Z,29.60
2022-11-23T19:07:38.057Z,21.37
2022-11-23T19:11:39.169Z,20.90
2022-11-23T19:15:41.952Z,20.53
2022-11-23T19:19:42.139Z,19.80
2022-11-23T19:23:42.558Z,19.40
2022-11-23T19:27:42.778Z,18.87
2022-11-23T19:31:45.850Z,18.00
2022-11-23T19:35:46.705Z,17.23
2022-11-23T19:39:47.145Z,17.97
2022-11-23T19:43:47.805Z,18.67
2022-11-23T19:47:50.485Z,19.53
2022-11-23T19:51:52.776Z,16.50
2022-11-23T19:55:53.631Z,16.50
2022-11-23T19:59:53.888Z,17.23
2022-11-23T20:04:00.212Z,17.50
2022-11-23T20:08:02.105Z,15.50
2022-11-23T20:12:02.432Z,15.63
2022-11-23T20:16:06.673Z,15.53
2022-11-23T20:20:13.315Z,16.03
2022-11-23T20:24:16.715Z,14.77
2022-11-23T20:28:17.488Z,14.73
2022-11-23T20:32:17.715Z,14.53
2022-11-23T20:36:24.575Z,14.70
2022-11-23T20:40:25.147Z,15.83
2022-11-23T20:44:29.565Z,16.57
2022-11-23T20:48:35.630Z,16.60
2022-11-23T20:52:38.356Z,16.50
2022-11-23T20:56:40.633Z,15.67
2022-11-23T21:00:40.717Z,16.47
2022-11-23T21:04:40.799Z,17.50
2022-11-23T21:08:45.086Z,17.03
2022-11-23T21:12:57.629Z,18.57
2022-11-23T21:17:00.469Z,17.60
2022-11-23T21:21:00.600Z,18.23
2022-11-23T21:25:03.393Z,18.20
2022-11-23T21:29:04.165Z,17.13
2022-11-23T21:33:04.280Z,16.80
2022-11-23T21:37:04.452Z,16.63
2022-11-23T21:41:10.123Z,17.07
2022-11-23T21:45:12.891Z,17.23
2022-11-23T21:49:13.577Z,17.53
2022-11-23T21:53:13.724Z,17.63
2022-11-23T21:57:16.435Z,18.37
2022-11-23T22:01:20.965Z,17.33
2022-11-23T22:05:21.216Z,18.43
2022-11-23T22:09:21.471Z,17.73
2022-11-23T22:13:24.565Z,17.67
2022-11-23T22:17:24.783Z,18.60
2022-11-23T22:21:27.076Z,17.17
2022-11-23T22:25:27.163Z,17.83
2022-11-23T22:29:30.232Z,18.33
2022-11-23T22:33:30.461Z,17.77
2022-11-23T22:37:31.184Z,19.30
2022-11-23T22:41:34.577Z,18.77
2022-11-23T22:45:37.413Z,18.23
2022-11-23T22:49:38.327Z,17.90
2022-11-23T22:53:44.543Z,10.30
2022-11-23T22:57:44.840Z,7.47
2022-11-23T23:01:47.588Z,6.30
2022-11-23T23:05:57.849Z,6.90
2022-11-23T23:09:57.884Z,6.13
2022-11-23T23:13:58.822Z,6.10
2022-11-23T23:18:01.540Z,6.53
2022-11-23T23:22:01.653Z,6.80
2022-11-23T23:26:01.973Z,7.47
2022-11-23T23:30:02.251Z,7.70
2022-11-23T23:34:05.216Z,7.87
2022-11-23T23:38:05.517Z,7.27
2022-11-23T23:42:07.590Z,7.30
2022-11-23T23:46:11.270Z,7.63
2022-11-23T23:50:14.509Z,8.03
2022-11-23T23:54:14.867Z,8.17
2022-11-23T23:58:15.535Z,8.27
